Cambria, CA

10:44 AM PST on December 21, 2014 (GMT -0800)
Berwick Heights | Change Station
CLOSE
Current Station
Personal Weather Station
Location: Cambria, CA
Elevation: 387 ft
Nearby Weather Stations

Elev 387 ft 35.55 °N, 121.08 °W | Updated 8 seconds ago

Partly Cloudy
Partly Cloudy
63.7 °F
Feels Like 63.7 °F
N
0.0
Wind Variable Wind from West
Gusts 3.0 mph

Today
High -- | Low -- °F
--% Chance of Precip.
Yesterday
High -- | Low -- °F
Precip. -- in
7:09 AM 4:55 PM
Waning Crescent, 0% visible
Pressure 30.31 in
Visibility 0.5 miles
Clouds Overcast 200 ft
Dew Point 58 °F
Humidity 83%
Rainfall 0.00 in
Snow Depth Not available.
UV 1 out of 12
Pollen 3.30 out of 12
Air Quality Not available.
Flu Activity Not available.
SPECI KPRB 211825Z AUTO 00000KT 1/2SM FG OVC002 11/10 A3031 RMK AO2 T01060100 TSNO

More Conditions Fewer Conditions

Pressure 30.31 in
Visibility 0.5 miles
Clouds Overcast 200 ft
Dew Point 58 °F
Humidity 83%
Rainfall 0.00 in
Snow Depth Not available.
UV 1 out of 12
Pollen 3.30 out of 12
Air Quality Not available.
Flu Activity Not available.
SPECI KPRB 211825Z AUTO 00000KT 1/2SM FG OVC002 11/10 A3031 RMK AO2 T01060100 TSNO

More Conditions Fewer Conditions

10-Day Weather Forecast

Almanac

Astronomy

Dec. 21, 2014 Rise Set
Actual Time
Civil Twilight
Nautical Twilight
Astronomical Twilight
Moon
Length of Visible Light
Length of Day
Tomorrow will be .
, % of the Moon is Illuminated

Today's Extremes

State Highs State Lows

Community

WunderPhotos

Upload Photos

1,779,451 photos uploaded!

WunderBlogs® & News

Nearby

Air Quality

  Air Quality AQ Index Pollutant
Not available.

Snow Depth

Station Depth Elevation

Earthquake Activity

City Distance Mag. Time & Date
Minimum magnitude displayed is 2.5.

Coastal Water Temperatures

Place Temperature

Nearby Weather Stations